AirNav   ATP
 
 838 users online  

7L8 Post-Air Airport
Indianapolis, Indiana, USA

GOING TO INDIANAPOLIS?


FAA INFORMATION EFFECTIVE 14 SEPTEMBER 2017

Location

FAA Identifier: 7L8
Lat/Long: 39-45-00.1540N / 086-00-49.9360W
39-45.002567N / 086-00.832267W
39.7500428 / -86.0138711
(estimated)
Elevation: 861 ft. / 262.4 m (surveyed)
Variation: 02W (1985)
From city: 6 miles E of INDIANAPOLIS, IN
Time zone: UTC -4 (UTC -5 during Standard Time)
Zip code: 46239

Airport Operations

Airport use: Open to the public
Activation date: 02/1967
Control tower: no
ARTCC: INDIANAPOLIS CENTER
FSS: TERRE HAUTE FLIGHT SERVICE STATION
NOTAMs facility: HUF (NOTAM-D service available)
Attendance: IREG
Wind indicator: yes
Segmented circle: yes
Lights: FOR LIRL RY 10/28 - CTAF

Airport Communications

CTAF: 122.9
WX AWOS-3 at 8A4 (6 nm W): 118.250 (317-955-3160)
WX AWOS-3 at MQJ (8 nm NE): 124.175 (317-335-3037)
WX AWOS-3P at HFY (8 nm SW): 118.525 (317-882-5862)
WX AWOS-3 at UMP (11 nm N): 119.375 (317-842-3911)
WX ASOS at IND (13 nm W): PHONE 317-241-0348
WX ASOS at EYE (14 nm W): 121.575 (317-329-1754)
WX ASOS at GEZ (14 nm SE): 121.55 (317-398-0246)

Nearby radio navigation aids

VOR radial/distance  VOR name  Freq  Var
SHBr308/11.2SHELBYVILLE VOR/DME112.0001E
VHPr102/16.8BRICKYARD VORTAC116.3001E

 
NDB name  Hdg/Dist  Freq  Var  ID
METROPOLITAN175/11.433803WUMP ..- -- .--.
NEW CASTLE258/33.038502WUWL ..- .-- .-..

Airport Services

Runway Information

Runway 10/28

Dimensions: 3750 x 47 ft. / 1143 x 14 m
Surface: asphalt, in good condition
Runway edge lights: low intensity
RUNWAY 10  RUNWAY 28
Latitude: 39-45.076167N39-44.969167N
Longitude: 086-01.320167W086-00.532167W
Elevation: 861.0 ft.861.0 ft.
Traffic pattern: rightleft
Displaced threshold: no1269 ft.
Markings: basic, in good condition
Obstructions: 10 ft. other, 640 ft. from runway, 125 ft. left of centerline, 44:1 slope to clear36 ft. trees, lighted, 205 ft. from runway
HAS +25 FT PLINE; +15 FT ROAD; +20 FT HOUSE; 15-25 FT TREES 10-200 FT EAST OF RY CNTRLN.

Airport Ownership and Management from official FAA records

Ownership: Privately-owned
Owner: MARTIN FALL
1215 S. FRANKLIN RD
INDIANAPOLIS, IN 46239
Phone 317-627-1308
Manager: MARTIN FALL
1215 S. FRANKLIN RD.
INDIANAPOLIS, IN 46239
Phone 317-627-1308

Airport Operational Statistics

Aircraft based on the field: 5
Single engine airplanes: 5
    
Aircraft operations: avg 40/week *
90% local general aviation
10% transient general aviation
* for 12-month period ending 31 December 2014

Additional Remarks

180 FT GRVL STOPWAY RY 28.
LGTD TV-TWR 2640'N OF APCH END RWY 28.
RWY 28: 20 FT HOUSE 110 FT S.
FOR CD CTC IND APCH AT 317-227-5743.

Instrument Procedures

There are no published instrument procedures at 7L8.

Some nearby airports with instrument procedures:

8A4 - Indianapolis Downtown Heliport (6 nm W)
KMQJ - Indianapolis Regional Airport (8 nm NE)
KHFY - Indy South Greenwood Airport (8 nm SW)
KUMP - Indianapolis Metropolitan Airport (11 nm N)
KIND - Indianapolis International Airport (13 nm W)
KEYE - Eagle Creek Airpark (14 nm W)
KGEZ - Shelbyville Municipal Airport (14 nm SE)
 
Loc | Ops | Rwys | IFR | FBO | Links
Com | Nav | Svcs | Stats | Notes


 
Area around 7L8 (Post-Air Airport)
 
Road maps at: MapQuest Bing Google
 
Aerial photo
WARNING: Photo may not be current or correct
Aerial photo of 7L8 (Post-Air Airport)
Photo taken 06-Aug-2004

Do you have a better or more recent aerial photo of Post-Air Airport that you would like to share? If so, please send us your photo.

 
Sectional chart

 
Airport distance calculator
Flying to Post-Air Airport? Find the distance to fly.

From to 7L8

Sunrise and sunset
Times for 23-Sep-2017
 Local
(UTC-4)
 Zulu
(UTC)
Morning civil twilight07:0711:07
Sunrise07:3411:34
Sunset19:3923:39
Evening civil twilight20:0600:06

Current date and time
Zulu (UTC)  23-Sep-2017 23:55:27
Local (UTC-4)  23-Sep-2017 19:55:27
 
METAR
KMQJ 
8nm NE 
232331Z AUTO 13004KT 10SM CLR 29/17 A3008 RMK AO1
KHFY 
8nm SW 
232330Z AUTO 12004KT 10SM CLR 32/18 A3007 RMK AO2 T03170181
KIND 
13nm W 
232254Z 11007KT 10SM FEW050 SCT250 31/17 A3005 RMK AO2 SLP170 T03060172
KGEZ 
14nm SE 
232253Z AUTO 13005KT 10SM CLR 31/16 A3006 RMK AO2 SLP171 T03060161
KEYE 
14nm W 
232253Z AUTO 11008KT 7SM BKN060 32/17 A3005 RMK AO2 SLP168 T03170167
TAF
KIND 
13nm W 
232022Z 2320/2424 12006KT P6SM FEW060 FM240200 00000KT P6SM SKC
NOTAMs
Click for the latest NOTAMs
NOTAMs are issued by the DoD/FAA and will open in a separate window not controlled by AirNav.

 

 
 

Would you like to see your business listed on this page?

 If your business provides an interesting product or service to pilots, flight crews, aircraft, or users of the Post-Air Airport, you should consider listing it here.  To start the listing process, click on the button below
 
Add a business
 

Other Pages about Post-Air Airport

Update a link
 
Copyright © AirNav, LLC. All rights reserved. Privacy Policy  Contact